Time;durP1;ratioP1;P1;durP2;ratioP2;P2;SDS_P1;SDS_P2;PMS_P1;PMS_P2;Temp;Humidity;BMP_temperature;BMP_pressure;BME280_temperature;BME280_humidity;BME280_pressure;Samples;Min_cycle;Max_cycle;Signal;HPM_P1;HPM_P2
2023/04/28 00:01:39;;;;;;;16.55;8.85;;;;;;;9.61;79.95;92787.16;5074894;28;20071;-79
2023/04/28 00:04:04;;;;;;;16.27;7.97;;;;;;;9.59;80.32;92787.44;5070609;28;20040;-79
2023/04/28 00:06:30;;;;;;;16.25;8.40;;;;;;;9.55;81.97;92777.78;5079238;28;20628;-79
2023/04/28 00:08:56;;;;;;;15.90;8.68;;;;;;;9.54;82.55;92773.59;5060499;28;20501;-80
2023/04/28 00:11:21;;;;;;;17.58;9.27;;;;;;;9.52;82.02;92775.72;5060795;28;20055;-79
2023/04/28 00:13:47;;;;;;;16.42;8.40;;;;;;;9.51;82.10;92769.72;5057826;28;20076;-80
2023/04/28 00:16:12;;;;;;;16.85;9.55;;;;;;;9.53;83.16;92770.22;5057862;28;20067;-79
2023/04/28 00:18:38;;;;;;;17.00;8.30;;;;;;;9.51;82.76;92768.94;5074291;28;20037;-79
2023/04/28 00:21:03;;;;;;;16.30;8.40;;;;;;;9.49;83.54;92771.03;5071848;28;20517;-79
2023/04/28 00:23:29;;;;;;;17.15;8.50;;;;;;;9.49;83.65;92771.03;5058419;28;20049;-79
2023/04/28 00:25:56;;;;;;;24.52;9.82;;;;;;;9.43;83.12;92769.50;5058283;28;20032;-79
2023/04/28 00:28:22;;;;;;;15.13;8.23;;;;;;;9.48;82.26;92769.47;5067747;28;20396;-79
2023/04/28 00:30:47;;;;;;;17.88;8.63;;;;;;;9.48;82.96;92774.69;5074024;28;20092;-79
2023/04/28 00:33:13;;;;;;;16.85;8.07;;;;;;;9.48;83.93;92772.06;5073504;28;20025;-79
2023/04/28 00:35:40;;;;;;;15.75;8.20;;;;;;;9.46;84.66;92776.81;5076593;28;20055;-79
2023/04/28 00:38:06;;;;;;;20.20;8.93;;;;;;;9.41;85.30;92761.94;5077165;28;20040;-79
2023/04/28 00:40:36;;;;;;;17.77;8.40;;;;;;;9.43;85.54;92766.88;5074715;28;20399;-80
2023/04/28 00:43:02;;;;;;;15.55;8.80;;;;;;;9.40;84.46;92767.44;5027973;28;20029;-79
2023/04/28 00:45:28;;;;;;;18.50;9.60;;;;;;;9.41;85.13;92774.22;5042977;28;20028;-79
2023/04/28 00:47:57;;;;;;;18.85;9.63;;;;;;;9.40;85.50;92770.84;5057041;28;20044;-80
2023/04/28 00:50:23;;;;;;;18.33;9.05;;;;;;;9.40;85.13;92763.00;5059564;28;20037;-79
2023/04/28 00:52:50;;;;;;;15.23;8.60;;;;;;;9.37;85.00;92756.47;5075638;28;20052;-79
2023/04/28 00:55:16;;;;;;;17.25;8.77;;;;;;;9.38;84.25;92763.25;5055985;28;20028;-79
2023/04/28 00:57:42;;;;;;;19.92;9.30;;;;;;;9.39;85.07;92761.44;5075924;28;20060;-79
2023/04/28 01:00:09;;;;;;;20.90;9.63;;;;;;;9.38;85.15;92762.47;5075440;28;20039;-79
2023/04/28 01:02:35;;;;;;;19.35;8.95;;;;;;;9.37;85.39;92755.72;5057677;28;20056;-79
2023/04/28 01:05:02;;;;;;;19.48;9.05;;;;;;;9.37;85.54;92764.31;5070836;28;20028;-79
2023/04/28 01:07:28;;;;;;;16.80;8.38;;;;;;;9.40;85.50;92749.16;5057236;28;20345;-79
2023/04/28 01:09:55;;;;;;;17.40;8.15;;;;;;;9.35;85.02;92758.59;5074877;28;20028;-79
2023/04/28 01:12:25;;;;;;;19.67;8.80;;;;;;;9.32;84.51;92758.31;5074969;28;20037;-80
2023/04/28 01:14:55;;;;;;;17.60;9.32;;;;;;;9.24;87.01;92756.31;5073031;28;20103;-80
2023/04/28 01:17:20;;;;;;;17.10;8.82;;;;;;;9.21;87.16;92756.84;5074902;28;20129;-79
2023/04/28 01:19:46;;;;;;;17.33;9.27;;;;;;;9.16;86.89;92755.84;5075330;28;20048;-79
2023/04/28 01:22:15;;;;;;;16.80;8.52;;;;;;;9.13;86.70;92758.97;5075446;28;20043;-79
2023/04/28 01:24:42;;;;;;;19.25;9.02;;;;;;;9.09;87.23;92750.09;5067739;28;20417;-79
2023/04/28 01:27:09;;;;;;;14.60;8.32;;;;;;;9.09;88.20;92751.94;5057909;28;20075;-79
2023/04/28 01:29:36;;;;;;;18.20;8.73;;;;;;;9.04;87.80;92750.13;5055801;28;20086;-79
2023/04/28 01:32:02;;;;;;;15.93;8.68;;;;;;;9.00;88.42;92759.56;5040716;28;20033;-79
2023/04/28 01:34:28;;;;;;;16.08;8.77;;;;;;;8.91;89.04;92748.88;5075567;28;20124;-80
2023/04/28 01:36:54;;;;;;;15.18;8.15;;;;;;;8.89;89.38;92761.47;5059635;28;20086;-79
2023/04/28 01:39:19;;;;;;;17.30;9.15;;;;;;;8.86;89.83;92761.19;5057330;28;20033;-79
2023/04/28 01:41:45;;;;;;;12.98;7.80;;;;;;;8.82;89.86;92768.78;5054465;28;20029;-79
2023/04/28 01:44:11;;;;;;;16.35;7.97;;;;;;;8.78;90.30;92765.16;5058019;28;20044;-79
2023/04/28 01:46:37;;;;;;;15.52;8.20;;;;;;;8.78;89.57;92765.16;5065975;28;20064;-79
2023/04/28 01:49:03;;;;;;;16.90;8.48;;;;;;;8.77;90.51;92768.03;5055530;28;20398;-79
2023/04/28 01:51:30;;;;;;;17.25;7.55;;;;;;;8.75;90.19;92776.91;5039833;28;20048;-79
2023/04/28 01:53:56;;;;;;;17.95;8.40;;;;;;;8.75;89.86;92773.50;5062455;28;20036;-79
2023/04/28 01:56:22;;;;;;;16.58;8.00;;;;;;;8.77;91.10;92779.25;5056156;28;20024;-79
2023/04/28 01:58:50;;;;;;;15.13;7.93;;;;;;;8.74;90.91;92780.56;5075525;28;20070;-79
2023/04/28 02:01:16;;;;;;;14.25;8.20;;;;;;;8.75;90.43;92776.91;5059525;28;20037;-79
2023/04/28 02:03:43;;;;;;;13.80;7.90;;;;;;;8.76;90.28;92788.13;5073729;28;20037;-79
2023/04/28 02:06:09;;;;;;;15.50;7.30;;;;;;;8.76;90.39;92777.69;5077055;28;20090;-79
2023/04/28 02:08:34;;;;;;;13.85;7.53;;;;;;;8.74;92.20;92769.34;5038170;28;20061;-79
2023/04/28 02:11:00;;;;;;;15.60;7.30;;;;;;;8.74;91.53;92777.19;5055512;28;20036;-79
2023/04/28 02:13:26;;;;;;;14.52;7.13;;;;;;;8.73;92.15;92779.00;5073660;28;20028;-79
2023/04/28 02:15:52;;;;;;;17.05;7.43;;;;;;;8.73;93.06;92775.59;5073247;28;20233;-79
2023/04/28 02:18:19;;;;;;;14.38;7.63;;;;;;;8.71;93.60;92772.47;5073370;28;20398;-79
2023/04/28 02:20:45;;;;;;;14.63;6.97;;;;;;;8.69;93.96;92771.97;5055507;28;20314;-80
2023/04/28 02:23:10;;;;;;;12.00;7.38;;;;;;;8.67;93.79;92769.63;5052387;28;20214;-79
2023/04/28 02:25:36;;;;;;;14.13;7.07;;;;;;;8.66;94.35;92773.28;5039063;28;20166;-79
2023/04/28 02:28:02;;;;;;;13.38;6.93;;;;;;;8.66;93.57;92777.72;5045123;28;20037;-79
2023/04/28 02:30:28;;;;;;;12.52;7.15;;;;;;;8.66;95.75;92778.50;5074689;28;20036;-79
2023/04/28 02:32:55;;;;;;;11.52;6.40;;;;;;;8.63;96.98;92775.66;5075764;28;20041;-79
2023/04/28 02:35:20;;;;;;;11.73;6.30;;;;;;;8.60;96.94;92766.53;5076079;28;20080;-79
2023/04/28 02:37:46;;;;;;;11.48;6.13;;;;;;;8.60;96.32;92757.91;5070153;28;20108;-80
2023/04/28 02:40:12;;;;;;;12.38;6.43;;;;;;;8.59;96.80;92751.13;5054539;28;20036;-79
2023/04/28 02:42:38;;;;;;;11.52;6.22;;;;;;;8.58;97.58;92754.78;5059329;28;20414;-79
2023/04/28 02:45:04;;;;;;;10.85;5.60;;;;;;;8.59;97.17;92751.13;5070484;28;20040;-78
2023/04/28 02:47:30;;;;;;;9.95;5.65;;;;;;;8.58;95.80;92749.56;5072174;28;20036;-79
2023/04/28 02:49:55;;;;;;;10.18;5.93;;;;;;;8.55;96.36;92749.03;5071731;28;20138;-78
2023/04/28 02:52:21;;;;;;;11.30;5.50;;;;;;;8.45;97.04;92733.44;5056658;28;20056;-79
2023/04/28 02:54:47;;;;;;;11.30;5.47;;;;;;;8.47;97.65;92749.59;5075527;28;20044;-79
2023/04/28 02:57:14;;;;;;;11.30;5.30;;;;;;;8.43;97.62;92745.19;5078425;28;20379;-79
2023/04/28 02:59:40;;;;;;;8.80;5.22;;;;;;;8.44;96.82;92741.53;5056692;28;20025;-79
2023/04/28 03:02:06;;;;;;;9.70;5.20;;;;;;;8.41;97.28;92750.66;5060764;28;20393;-80
2023/04/28 03:04:32;;;;;;;8.23;4.90;;;;;;;8.38;97.23;92748.56;5075824;28;20097;-79
2023/04/28 03:06:57;;;;;;;7.22;4.65;;;;;;;8.39;96.35;92752.72;5028089;28;20029;-79
2023/04/28 03:09:23;;;;;;;8.82;4.93;;;;;;;8.38;96.93;92756.41;5078048;28;20106;-80
2023/04/28 03:11:48;;;;;;;17.15;7.20;;;;;;;8.41;96.60;92757.72;5077328;28;20032;-79
2023/04/28 03:14:14;;;;;;;9.77;6.15;;;;;;;8.39;97.70;92763.16;5078441;28;20032;-79
2023/04/28 03:16:40;;;;;;;8.80;5.38;;;;;;;8.42;97.14;92767.91;5078874;28;20060;-79
2023/04/28 03:19:05;;;;;;;12.02;5.85;;;;;;;8.42;98.75;92762.69;5077706;28;20062;-78
2023/04/28 03:21:31;;;;;;;9.32;5.32;;;;;;;8.45;99.16;92766.56;5033626;28;20469;-79
2023/04/28 03:23:57;;;;;;;8.65;5.13;;;;;;;8.47;99.56;92761.88;5061606;28;20037;-79
2023/04/28 03:26:23;;;;;;;8.10;4.53;;;;;;;8.49;99.38;92757.19;5041226;28;20131;-79
2023/04/28 03:28:50;;;;;;;8.30;4.80;;;;;;;8.54;98.64;92752.72;5057796;28;20072;-79
2023/04/28 03:31:16;;;;;;;9.35;4.50;;;;;;;8.64;98.18;92753.72;5061681;28;20029;-79
2023/04/28 03:33:44;;;;;;;10.90;4.57;;;;;;;8.70;97.85;92750.81;5055595;28;20063;-79
2023/04/28 03:36:11;;;;;;;8.13;4.47;;;;;;;8.73;97.70;92752.13;5077792;28;20048;-79
2023/04/28 03:38:36;;;;;;;8.85;4.60;;;;;;;8.75;97.49;92750.03;5077966;28;20043;-79
2023/04/28 03:41:02;;;;;;;9.93;4.90;;;;;;;8.77;97.64;92753.16;5076662;28;20048;-80
2023/04/28 03:43:55;;;;;;;10.25;4.43;;;;;;;8.78;97.16;92749.50;5075806;28;20060;-79
2023/04/28 03:46:29;;;;;;;8.63;4.63;;;;;;;8.77;96.75;92736.72;5077384;28;20036;-79
2023/04/28 03:48:55;;;;;;;9.40;4.65;;;;;;;8.80;97.01;92739.53;5074598;28;20375;-79
2023/04/28 03:51:21;;;;;;;10.45;5.18;;;;;;;8.82;96.37;92734.84;5070422;28;20048;-80
2023/04/28 03:53:46;;;;;;;10.70;4.72;;;;;;;8.84;96.05;92737.19;5075426;28;20440;-79
2023/04/28 03:56:12;;;;;;;8.07;4.68;;;;;;;8.83;96.89;92731.19;5059894;28;20513;-80
2023/04/28 03:58:38;;;;;;;9.98;4.97;;;;;;;8.84;96.54;92737.97;5041480;28;20441;-80
2023/04/28 04:01:04;;;;;;;9.98;4.53;;;;;;;8.83;97.56;92740.88;5060329;28;20072;-79
2023/04/28 04:03:30;;;;;;;11.63;5.03;;;;;;;8.79;98.38;92735.38;5075751;28;20051;-79
2023/04/28 04:05:56;;;;;;;6.97;4.30;;;;;;;8.77;98.45;92742.69;5059038;28;20425;-79
2023/04/28 04:08:22;;;;;;;8.65;4.80;;;;;;;8.78;98.65;92744.28;5060941;28;20035;-79
2023/04/28 04:10:47;;;;;;;10.52;4.95;;;;;;;8.78;99.40;92746.09;5077532;28;20410;-80
2023/04/28 04:13:13;;;;;;;8.43;4.90;;;;;;;8.77;98.47;92731.50;5057600;28;20400;-80
2023/04/28 04:15:40;;;;;;;11.02;5.10;;;;;;;8.78;98.73;92733.84;5057239;28;20032;-80
2023/04/28 04:18:06;;;;;;;9.25;5.47;;;;;;;8.79;98.26;92730.16;5056985;28;20139;-80
2023/04/28 04:20:56;;;;;;;9.82;4.57;;;;;;;8.82;97.65;92732.22;5073984;28;20131;-80
2023/04/28 04:23:22;;;;;;;9.18;5.00;;;;;;;8.84;98.87;92727.53;5080735;28;20494;-80
2023/04/28 04:25:48;;;;;;;9.93;4.68;;;;;;;8.86;99.55;92717.59;5013478;28;20095;-81
2023/04/28 04:28:14;;;;;;;7.90;4.75;;;;;;;8.72;99.34;92695.75;5090880;28;20452;-79
2023/04/28 04:30:42;;;;;;;10.68;5.03;;;;;;;8.89;99.12;92719.69;5078577;28;20059;-80
2023/04/28 04:33:07;;;;;;;16.20;5.43;;;;;;;8.91;100.00;92725.41;5076983;28;20127;-81
2023/04/28 04:35:33;;;;;;;8.88;5.03;;;;;;;8.94;100.00;92722.25;5069880;28;20033;-80
2023/04/28 04:38:00;;;;;;;11.90;5.13;;;;;;;8.96;100.00;92725.38;5036730;28;20045;-80
2023/04/28 04:40:26;;;;;;;11.77;6.15;;;;;;;8.99;100.00;92731.13;5086239;28;20033;-81
2023/04/28 04:42:53;;;;;;;11.48;6.15;;;;;;;9.02;100.00;92733.19;5074781;28;20075;-81
2023/04/28 04:45:20;;;;;;;10.27;5.50;;;;;;;9.04;100.00;92728.47;5074197;28;20036;-79
2023/04/28 04:47:46;;;;;;;13.27;5.57;;;;;;;9.06;100.00;92734.97;5058263;28;20028;-80
2023/04/28 04:50:12;;;;;;;10.85;5.80;;;;;;;9.08;99.94;92737.34;5076323;28;20414;-79
2023/04/28 04:52:38;;;;;;;11.15;5.82;;;;;;;9.10;100.00;92738.63;5057801;28;20497;-81
2023/04/28 04:55:04;;;;;;;12.30;5.60;;;;;;;9.13;100.00;92755.59;5046621;28;20071;-79
2023/04/28 04:57:31;;;;;;;10.13;5.78;;;;;;;9.14;100.00;92751.91;5065407;28;20028;-80
2023/04/28 05:00:05;;;;;;;11.05;6.10;;;;;;;9.17;100.00;92761.84;5053952;28;20094;-79
2023/04/28 05:02:31;;;;;;;11.13;5.30;;;;;;;9.19;100.00;92767.56;5066476;28;20127;-79
2023/04/28 05:04:57;;;;;;;12.68;6.00;;;;;;;9.20;100.00;92766.50;5070228;28;20047;-78
2023/04/28 05:07:25;;;;;;;11.30;5.90;;;;;;;9.22;100.00;92764.41;5030918;28;20033;-81
2023/04/28 05:09:51;;;;;;;11.05;6.13;;;;;;;9.25;100.00;92763.84;5062311;28;20486;-80
2023/04/28 05:12:17;;;;;;;10.88;5.72;;;;;;;9.27;100.00;92766.97;5051539;28;20281;-80
2023/04/28 05:14:42;;;;;;;10.30;5.63;;;;;;;9.30;100.00;92761.22;5066818;28;20040;-80
2023/04/28 05:17:08;;;;;;;11.68;5.57;;;;;;;9.35;100.00;92769.03;5069239;28;20131;-80
2023/04/28 05:19:36;;;;;;;8.57;5.47;;;;;;;9.38;100.00;92758.03;5049648;28;20147;-79
2023/04/28 05:22:02;;;;;;;12.45;5.50;;;;;;;9.43;100.00;92765.06;5041607;28;20041;-78
2023/04/28 05:24:28;;;;;;;8.68;5.10;;;;;;;9.46;100.00;92761.13;5081122;28;20129;-78
2023/04/28 05:26:57;;;;;;;9.18;5.25;;;;;;;9.50;100.00;92762.13;5070931;28;20405;-78
2023/04/28 05:29:23;;;;;;;10.77;5.10;;;;;;;9.56;100.00;92772.28;5049012;28;20457;-78
2023/04/28 05:31:48;;;;;;;12.20;5.00;;;;;;;9.60;100.00;92772.53;5070856;28;20060;-78
2023/04/28 05:34:14;;;;;;;10.15;5.40;;;;;;;9.64;100.00;92776.16;5070670;28;20276;-78
2023/04/28 05:36:40;;;;;;;9.65;4.57;;;;;;;9.66;99.35;92770.63;5068464;28;20039;-78
2023/04/28 05:39:09;;;;;;;9.48;4.53;;;;;;;9.69;98.80;92770.13;5069721;28;20119;-79
2023/04/28 05:41:37;;;;;;;11.63;5.10;;;;;;;9.74;99.06;92765.63;5055928;28;20033;-79
2023/04/28 05:44:02;;;;;;;8.25;4.55;;;;;;;9.78;99.61;92766.63;5072974;28;20032;-79
2023/04/28 05:46:28;;;;;;;14.13;5.25;;;;;;;9.83;98.67;92773.66;5059054;28;20060;-79
2023/04/28 05:48:53;;;;;;;15.43;5.18;;;;;;;9.88;98.28;92775.44;5041522;28;20127;-79
2023/04/28 05:51:21;;;;;;;11.43;4.85;;;;;;;9.94;98.97;92784.81;5067483;28;20406;-79
2023/04/28 05:53:47;;;;;;;13.27;4.95;;;;;;;9.97;100.00;92785.06;5068910;28;20029;-80
2023/04/28 05:56:15;;;;;;;9.57;4.90;;;;;;;10.01;99.58;92785.28;5069112;28;20033;-80
2023/04/28 05:58:46;;;;;;;12.48;4.75;;;;;;;10.05;98.75;92791.53;5073629;28;20063;-79
2023/04/28 06:01:12;;;;;;;9.95;4.63;;;;;;;10.07;98.32;92783.41;5068675;28;20052;-79
2023/04/28 06:03:40;;;;;;;8.52;4.00;;;;;;;10.14;98.17;92783.88;5069687;28;20486;-79
2023/04/28 06:06:07;;;;;;;9.20;4.32;;;;;;;10.21;98.00;92784.31;5056519;28;20150;-79
2023/04/28 06:08:33;;;;;;;11.07;4.43;;;;;;;10.27;98.59;92782.41;5073230;28;20083;-79
2023/04/28 06:10:58;;;;;;;8.25;4.35;;;;;;;10.34;95.91;92780.31;5073173;28;20390;-79
2023/04/28 06:13:24;;;;;;;8.73;4.25;;;;;;;10.40;94.86;92784.41;5070192;28;20382;-79
2023/04/28 06:15:49;;;;;;;7.30;4.28;;;;;;;10.50;90.31;92780.94;5072562;28;20040;-79
2023/04/28 06:18:15;;;;;;;10.35;4.78;;;;;;;10.49;88.03;92776.75;5055936;28;20044;-79
2023/04/28 06:20:41;;;;;;;11.30;4.40;;;;;;;10.46;88.42;92775.47;5072292;28;20052;-79
2023/04/28 06:23:08;;;;;;;11.68;4.40;;;;;;;10.45;87.67;92781.78;5055773;28;20047;-79
2023/04/28 06:25:35;;;;;;;9.15;4.35;;;;;;;10.62;84.15;92774.25;5072128;28;20045;-78
2023/04/28 06:28:01;;;;;;;7.97;4.45;;;;;;;10.66;85.84;92773.69;5072105;28;20048;-79
2023/04/28 06:30:26;;;;;;;11.90;4.78;;;;;;;10.72;84.91;92780.44;5051717;28;20041;-79
2023/04/28 06:32:54;;;;;;;10.48;5.43;;;;;;;10.60;85.41;92776.38;5080541;28;20036;-79
2023/04/28 06:35:21;;;;;;;8.77;4.63;;;;;;;10.61;86.51;92766.69;5080302;28;20028;-79
2023/04/28 06:37:47;;;;;;;10.30;4.95;;;;;;;10.76;87.71;92784.03;5079382;28;20029;-78
2023/04/28 06:40:14;;;;;;;10.82;5.15;;;;;;;10.71;88.52;92784.88;5079908;28;20040;-79
2023/04/28 06:42:45;;;;;;;8.93;3.90;;;;;;;10.71;85.96;92782.25;5060775;28;20165;-79
2023/04/28 06:45:17;;;;;;;8.75;4.80;;;;;;;10.73;86.47;92779.38;5060102;28;20036;-79
2023/04/28 06:47:42;;;;;;;9.20;4.25;;;;;;;10.75;84.91;92785.88;5056822;28;20033;-78
2023/04/28 06:50:08;;;;;;;10.05;4.68;;;;;;;10.83;85.70;92795.75;5039586;28;20044;-79
2023/04/28 06:52:35;;;;;;;7.63;4.43;;;;;;;10.92;86.16;92803.78;5055538;28;20098;-79
2023/04/28 06:55:00;;;;;;;13.10;4.68;;;;;;;10.92;85.23;92801.16;5055287;28;20041;-79
2023/04/28 06:57:26;;;;;;;8.07;4.35;;;;;;;10.91;85.87;92796.97;5038528;28;20037;-79
2023/04/28 06:59:53;;;;;;;10.20;5.35;;;;;;;10.95;87.27;92800.59;5062431;28;20440;-79
2023/04/28 07:02:19;;;;;;;11.55;5.03;;;;;;;10.96;86.37;92788.28;5076607;28;20148;-79
2023/04/28 07:04:44;;;;;;;8.18;4.60;;;;;;;11.06;85.32;92792.63;5072616;28;20127;-79
2023/04/28 07:07:10;;;;;;;10.00;5.00;;;;;;;11.14;84.02;92784.13;5075861;28;20493;-79
2023/04/28 07:09:36;;;;;;;11.70;5.25;;;;;;;11.15;83.36;92790.94;5058241;28;20493;-79
2023/04/28 07:12:03;;;;;;;7.88;4.53;;;;;;;11.16;83.77;92792.47;5076514;28;20033;-79
2023/04/28 07:14:28;;;;;;;11.00;5.68;;;;;;;11.38;80.52;92778.84;5076776;28;20041;-79
2023/04/28 07:16:54;;;;;;;10.93;5.07;;;;;;;11.33;79.68;92789.41;5074897;28;20202;-79
2023/04/28 07:19:20;;;;;;;10.23;5.28;;;;;;;11.31;79.43;92802.78;5076416;28;20063;-79
2023/04/28 07:21:45;;;;;;;9.30;5.70;;;;;;;11.33;82.60;92805.88;5076485;28;20028;-79
2023/04/28 07:24:11;;;;;;;10.70;6.03;;;;;;;11.25;81.75;92801.28;5073714;28;20055;-79
2023/04/28 07:26:37;;;;;;;9.45;5.70;;;;;;;11.31;81.70;92802.78;5074933;28;20137;-79
2023/04/28 07:29:02;;;;;;;10.05;6.22;;;;;;;11.21;81.85;92800.25;5058955;28;20070;-79
2023/04/28 07:31:28;;;;;;;12.73;5.65;;;;;;;11.14;81.96;92795.38;5074948;28;20047;-79
2023/04/28 07:33:54;;;;;;;11.07;5.75;;;;;;;11.08;81.59;92795.72;5058475;28;20401;-79
2023/04/28 07:36:20;;;;;;;11.75;6.10;;;;;;;11.01;83.06;92796.84;5071948;28;20053;-78
2023/04/28 07:38:46;;;;;;;12.05;6.18;;;;;;;11.04;83.55;92801.53;5075034;28;20405;-79
2023/04/28 07:41:12;;;;;;;10.40;5.63;;;;;;;11.09;83.08;92797.28;5057566;28;20501;-79
2023/04/28 07:43:38;;;;;;;14.20;6.50;;;;;;;11.25;81.50;92793.41;5075814;28;20036;-79
2023/04/28 07:46:05;;;;;;;11.52;6.28;;;;;;;11.13;83.49;92793.81;5074875;28;20113;-79
2023/04/28 07:48:31;;;;;;;11.65;5.95;;;;;;;11.20;84.51;92796.88;5058034;28;20402;-79
2023/04/28 07:50:56;;;;;;;10.27;5.80;;;;;;;11.31;84.75;92805.38;5055696;28;20024;-79
2023/04/28 07:53:22;;;;;;;9.95;6.03;;;;;;;11.47;85.17;92798.09;5072423;28;20048;-79
2023/04/28 07:55:48;;;;;;;10.15;5.78;;;;;;;11.57;83.26;92797.16;5057688;28;20386;-79
2023/04/28 07:58:13;;;;;;;10.45;4.95;;;;;;;11.76;81.92;92799.81;5058206;28;20090;-78
2023/04/28 08:00:39;;;;;;;11.15;5.18;;;;;;;11.75;80.79;92788.50;5069709;28;20043;-79
2023/04/28 08:03:04;;;;;;;10.73;4.82;;;;;;;11.92;81.75;92803.00;5064185;28;20040;-76
2023/04/28 08:05:31;;;;;;;11.50;5.82;;;;;;;11.81;77.85;92808.34;5064796;28;20401;-77
2023/04/28 08:07:56;;;;;;;17.58;5.78;;;;;;;11.81;77.92;92799.72;5071293;28;20486;-77
2023/04/28 08:10:22;;;;;;;10.98;5.45;;;;;;;11.79;77.87;92805.22;5068631;28;20033;-77
2023/04/28 08:12:48;;;;;;;11.15;5.20;;;;;;;11.85;76.25;92806.72;5050816;28;20417;-77
2023/04/28 08:15:13;;;;;;;10.43;4.93;;;;;;;11.94;77.04;92801.63;5070741;28;20048;-78
2023/04/28 08:17:39;;;;;;;10.10;5.80;;;;;;;11.95;77.98;92802.41;5070554;28;20455;-77
2023/04/28 08:20:06;;;;;;;8.95;5.25;;;;;;;11.86;78.67;92810.13;5072171;28;20045;-78
2023/04/28 08:22:32;;;;;;;11.15;5.72;;;;;;;11.82;80.55;92802.06;5070476;28;20040;-78
2023/04/28 08:24:58;;;;;;;10.25;5.50;;;;;;;11.96;81.68;92814.47;5070391;28;20102;-78
2023/04/28 08:27:24;;;;;;;8.82;4.78;;;;;;;11.88;80.11;92816.66;5066487;28;20029;-78
2023/04/28 08:29:50;;;;;;;8.10;4.80;;;;;;;11.91;77.96;92811.91;5071732;28;20494;-79
2023/04/28 08:32:16;;;;;;;10.80;5.05;;;;;;;12.11;77.74;92816.84;5072337;28;20237;-78
2023/04/28 08:34:42;;;;;;;9.88;4.88;;;;;;;12.20;72.35;92798.59;5054326;28;20040;-77
2023/04/28 08:37:08;;;;;;;9.27;4.80;;;;;;;12.39;72.62;92801.97;5033833;28;20613;-77
2023/04/28 08:39:34;;;;;;;9.68;5.20;;;;;;;12.39;73.00;92803.81;5054607;28;20067;-78
2023/04/28 08:42:03;;;;;;;10.02;5.05;;;;;;;12.56;71.14;92804.00;5070279;28;20470;-78
2023/04/28 08:44:37;;;;;;;8.35;5.22;;;;;;;12.62;72.07;92799.47;5070387;28;20032;-78
2023/04/28 08:47:13;;;;;;;9.20;4.68;;;;;;;12.82;72.05;92799.09;5052174;28;20222;-78
2023/04/28 08:49:40;;;;;;;11.93;5.43;;;;;;;13.02;75.64;92802.41;5069369;28;20397;-78
2023/04/28 08:52:11;;;;;;;11.10;5.03;;;;;;;13.07;75.65;92797.03;5067028;28;20024;-78
2023/04/28 08:54:38;;;;;;;8.77;4.95;;;;;;;13.02;75.72;92792.66;5068436;28;20105;-78
2023/04/28 08:57:04;;;;;;;11.02;5.10;;;;;;;13.19;76.57;92789.41;5069878;28;20049;-78
2023/04/28 08:59:30;;;;;;;8.85;5.43;;;;;;;13.19;77.52;92789.41;5069972;28;20024;-78
2023/04/28 09:01:56;;;;;;;11.18;5.35;;;;;;;13.22;76.70;92793.34;5068703;28;20035;-78
2023/04/28 09:04:21;;;;;;;9.45;6.22;;;;;;;13.16;78.58;92791.88;5067780;28;20044;-76
2023/04/28 09:06:47;;;;;;;10.27;5.88;;;;;;;13.28;78.84;92792.16;5048267;28;20060;-78
2023/04/28 09:09:30;;;;;;;10.95;5.90;;;;;;;13.19;77.34;92796.53;5051767;28;20107;-76
2023/04/28 09:12:00;;;;;;;12.88;5.93;;;;;;;13.21;76.49;92789.91;5068640;28;20143;-77
2023/04/28 09:14:27;;;;;;;11.73;5.70;;;;;;;13.17;74.85;92788.16;5068551;28;20100;-79
2023/04/28 09:16:53;;;;;;;11.38;6.13;;;;;;;13.17;74.18;92782.91;5046517;28;20517;-78
2023/04/28 09:19:20;;;;;;;9.50;6.03;;;;;;;13.18;76.05;92787.09;5070242;28;20067;-77
2023/04/28 09:21:48;;;;;;;8.88;5.50;;;;;;;13.42;74.09;92782.41;5088397;28;20069;-77
2023/04/28 09:24:32;;;;;;;10.00;5.70;;;;;;;13.56;72.65;92784.25;5089964;28;20036;-79
2023/04/28 09:26:59;;;;;;;10.10;6.05;;;;;;;13.53;73.68;92790.84;5084075;28;20039;-79
2023/04/28 09:29:25;;;;;;;10.10;6.20;;;;;;;13.59;73.91;92794.16;5090908;28;20035;-79
2023/04/28 09:31:52;;;;;;;9.48;4.65;;;;;;;13.82;71.82;92787.81;5094882;28;20039;-79
2023/04/28 09:34:18;;;;;;;9.55;5.65;;;;;;;13.69;72.42;92783.38;5091514;28;20040;-78
2023/04/28 09:36:43;;;;;;;13.70;6.30;;;;;;;13.81;71.62;92780.25;5064463;28;20123;-79
2023/04/28 09:39:10;;;;;;;10.70;5.78;;;;;;;13.79;71.88;92785.81;5094352;28;20566;-80
2023/04/28 09:41:40;;;;;;;12.63;6.25;;;;;;;13.80;71.15;92786.56;5091240;28;20044;-77
2023/04/28 09:44:20;;;;;;;11.02;5.72;;;;;;;13.54;72.41;92793.19;5076351;28;20507;-78
2023/04/28 09:46:47;;;;;;;10.95;5.90;;;;;;;13.43;75.00;92775.31;5090098;28;20055;-77
2023/04/28 09:49:13;;;;;;;7.25;4.68;;;;;;;13.74;71.84;92780.66;5099020;28;20123;-79
2023/04/28 09:51:39;;;;;;;9.85;6.00;;;;;;;13.85;72.50;92776.72;5089131;28;20035;-78
2023/04/28 09:54:06;;;;;;;10.65;6.10;;;;;;;14.04;71.13;92788.94;5090085;28;20112;-80
2023/04/28 09:56:37;;;;;;;12.20;6.18;;;;;;;14.25;70.38;92784.75;5092641;28;20039;-80
2023/04/28 09:59:03;;;;;;;10.63;5.97;;;;;;;14.12;68.55;92786.34;5090055;28;20032;-80
2023/04/28 10:01:37;;;;;;;9.25;6.28;;;;;;;14.20;69.21;92792.75;5093094;28;20036;-80
2023/04/28 10:04:04;;;;;;;10.50;5.95;;;;;;;14.27;70.27;92787.81;5093812;28;20039;-78
2023/04/28 10:06:29;;;;;;;10.27;5.78;;;;;;;14.56;68.59;92781.34;5093050;28;20092;-80
2023/04/28 10:08:57;;;;;;;15.18;5.65;;;;;;;14.44;67.59;92773.22;5089667;28;20067;-79
2023/04/28 10:11:24;;;;;;;13.15;5.78;;;;;;;14.48;67.70;92777.56;5097600;28;20115;-80
2023/04/28 10:13:50;;;;;;;7.90;4.85;;;;;;;14.59;66.04;92780.75;5098654;28;20460;-80
2023/04/28 10:16:16;;;;;;;9.27;5.32;;;;;;;14.45;67.36;92774.75;5077696;28;20042;-79
2023/04/28 10:18:43;;;;;;;10.10;5.75;;;;;;;14.49;66.70;92773.06;5044396;28;20129;-79
2023/04/28 10:21:13;;;;;;;11.88;5.95;;;;;;;14.54;65.47;92771.09;5093320;28;20052;-79
2023/04/28 10:24:13;;;;;;;10.25;5.55;;;;;;;14.64;64.59;92762.19;5096813;28;20055;-77
2023/04/28 10:27:02;;;;;;;9.98;5.18;;;;;;;14.80;64.30;92767.81;5087447;28;20028;-79
2023/04/28 10:29:30;;;;;;;9.73;4.97;;;;;;;14.98;62.28;92768.66;5091781;28;20389;-78
2023/04/28 10:32:18;;;;;;;9.57;5.30;;;;;;;14.93;64.44;92763.53;5095006;28;20068;-80
2023/04/28 10:34:43;;;;;;;10.57;4.80;;;;;;;15.02;65.35;92759.06;5094937;28;20158;-79
2023/04/28 10:37:09;;;;;;;7.35;4.32;;;;;;;14.82;63.50;92759.59;5095313;28;20134;-78
2023/04/28 10:39:35;;;;;;;6.75;4.28;;;;;;;14.71;62.59;92751.97;5092250;28;20058;-79
2023/04/28 10:42:02;;;;;;;6.63;3.90;;;;;;;15.16;63.27;92758.91;5094708;28;20104;-78
2023/04/28 10:44:27;;;;;;;7.70;4.13;;;;;;;15.40;60.19;92747.91;5074233;28;20032;-78
2023/04/28 10:47:08;;;;;;;9.13;4.00;;;;;;;15.50;59.82;92758.19;5089362;28;20107;-78
2023/04/28 10:49:59;;;;;;;7.05;4.00;;;;;;;15.52;59.88;92749.97;5092081;28;20101;-77
2023/04/28 10:52:41;;;;;;;9.30;4.20;;;;;;;15.46;60.07;92741.41;5090599;28;20032;-78
2023/04/28 10:55:25;;;;;;;7.28;3.97;;;;;;;15.43;59.81;92736.00;5090403;28;20044;-77
2023/04/28 10:58:19;;;;;;;7.68;3.80;;;;;;;15.62;59.27;92739.09;5090162;28;20200;-79
2023/04/28 11:00:50;;;;;;;7.80;3.97;;;;;;;15.89;58.54;92729.34;5093319;28;20039;-78
2023/04/28 11:03:45;;;;;;;6.78;3.72;;;;;;;16.29;58.07;92729.09;5088510;28;20047;-79
2023/04/28 11:06:31;;;;;;;4.22;2.67;;;;;;;16.50;58.15;92718.63;5090720;28;20040;-78
2023/04/28 11:08:59;;;;;;;5.75;3.65;;;;;;;16.42;55.83;92707.78;5092709;28;20393;-78
2023/04/28 11:11:29;;;;;;;6.60;3.80;;;;;;;16.29;56.72;92719.31;5091718;28;20024;-79
2023/04/28 11:14:17;;;;;;;10.43;4.40;;;;;;;16.11;56.22;92708.00;5090181;28;20039;-78
2023/04/28 11:16:50;;;;;;;5.32;3.60;;;;;;;16.03;58.15;92704.31;5091349;28;20024;-79
2023/04/28 11:19:24;;;;;;;6.22;3.08;;;;;;;15.97;58.44;92716.13;5092681;28;20055;-79
2023/04/28 11:21:51;;;;;;;6.30;3.08;;;;;;;16.34;56.99;92705.16;5091946;28;20327;-79
2023/04/28 11:24:17;;;;;;;5.32;3.58;;;;;;;16.31;55.56;92706.56;5094557;28;20032;-79
2023/04/28 11:26:43;;;;;;;6.07;2.53;;;;;;;16.47;55.11;92708.69;5094005;28;21576;-78
2023/04/28 11:29:10;;;;;;;4.57;2.53;;;;;;;16.44;53.11;92713.50;5092936;28;20507;-79
2023/04/28 11:31:37;;;;;;;4.88;3.00;;;;;;;16.25;53.65;92715.75;5094001;28;20493;-79
2023/04/28 11:34:10;;;;;;;6.97;2.92;;;;;;;16.18;55.44;92710.94;5093163;28;20139;-78